createdAt,value
2023-02-09T00:00:39.672Z,9.681308
2023-02-09T00:01:39.739Z,9.681231
2023-02-09T00:02:39.652Z,9.681231
2023-02-09T00:03:39.743Z,9.681414
2023-02-09T00:04:39.644Z,9.681426
2023-02-09T00:05:39.638Z,9.681214
2023-02-09T00:06:39.630Z,9.680824
2023-02-09T00:07:39.624Z,9.680810
2023-02-09T00:08:39.636Z,9.681091
2023-02-09T00:09:39.630Z,9.681295
2023-02-09T00:10:39.605Z,9.681113
2023-02-09T00:11:39.595Z,9.681085
2023-02-09T00:12:39.590Z,9.680998
2023-02-09T00:13:39.585Z,9.681068
2023-02-09T00:14:39.575Z,9.681155
2023-02-09T00:15:39.590Z,9.681203
2023-02-09T00:16:39.612Z,9.681203
2023-02-09T00:17:39.562Z,9.681490
2023-02-09T00:18:39.563Z,9.681490
2023-02-09T00:19:39.562Z,9.681490
2023-02-09T00:20:39.538Z,9.681490
2023-02-09T00:21:39.536Z,9.680874
2023-02-09T00:22:39.534Z,9.681272
2023-02-09T00:23:39.517Z,9.681143
2023-02-09T00:24:39.511Z,9.680966
2023-02-09T00:25:39.515Z,9.681121
2023-02-09T00:26:39.533Z,9.681097
2023-02-09T00:27:39.497Z,9.681042
2023-02-09T00:28:39.489Z,9.681403
2023-02-09T00:29:39.493Z,9.681279
2023-02-09T00:30:39.525Z,9.681373
2023-02-09T00:31:39.513Z,9.681276
2023-02-09T00:32:39.458Z,9.680972
2023-02-09T00:33:39.478Z,9.681098
2023-02-09T00:34:39.466Z,9.681244
2023-02-09T00:35:39.441Z,9.681322
2023-02-09T00:36:39.434Z,9.681299
2023-02-09T00:37:39.432Z,9.681166
2023-02-09T00:38:39.423Z,9.680918
2023-02-09T00:39:39.440Z,9.681650
2023-02-09T00:40:39.424Z,9.681607
2023-02-09T00:41:39.447Z,9.681607
2023-02-09T00:42:39.398Z,9.681317
2023-02-09T00:43:39.415Z,9.681216
2023-02-09T00:44:39.400Z,9.681216
2023-02-09T00:45:39.462Z,9.681216
2023-02-09T00:46:39.416Z,9.681101
2023-02-09T00:47:39.358Z,9.681213
2023-02-09T00:48:39.382Z,9.680024
2023-02-09T00:49:39.346Z,9.680024
2023-02-09T00:50:39.335Z,9.680024
2023-02-09T00:51:39.352Z,9.680024
2023-02-09T00:52:39.331Z,9.680024
2023-02-09T00:53:39.353Z,9.680024
2023-02-09T00:54:39.324Z,9.680024
2023-02-09T00:55:39.330Z,9.680024
2023-02-09T00:56:39.297Z,9.680939
2023-02-09T00:57:39.323Z,9.680883
2023-02-09T00:58:39.309Z,9.680908
2023-02-09T00:59:39.283Z,9.680872
2023-02-09T01:00:39.273Z,9.680521
2023-02-09T01:01:39.336Z,9.680348
2023-02-09T01:02:39.268Z,9.680456
2023-02-09T01:03:39.269Z,9.680456
2023-02-09T01:04:39.316Z,9.680456
2023-02-09T01:05:39.250Z,9.680456
2023-02-09T01:06:39.249Z,9.680456
2023-02-09T01:07:39.222Z,9.680875
2023-02-09T01:08:39.243Z,9.680528
2023-02-09T01:09:39.237Z,9.680790
2023-02-09T01:10:39.232Z,9.680912
2023-02-09T01:11:39.205Z,9.681058
2023-02-09T01:12:39.196Z,9.681161
2023-02-09T01:13:39.194Z,9.681161
2023-02-09T01:14:39.194Z,9.680694
2023-02-09T01:15:39.200Z,9.680694
2023-02-09T01:16:39.222Z,9.680694
2023-02-09T01:17:39.167Z,9.680694
2023-02-09T01:18:39.183Z,9.680694
2023-02-09T01:19:39.160Z,9.680694
2023-02-09T01:20:39.176Z,9.680694
2023-02-09T01:21:39.143Z,9.680694
2023-02-09T01:22:39.137Z,9.680694
2023-02-09T01:23:39.134Z,9.680694
2023-02-09T01:24:39.122Z,9.680694
2023-02-09T01:25:39.164Z,9.680694
2023-02-09T01:26:39.108Z,9.680694
2023-02-09T01:27:39.118Z,9.680694
2023-02-09T01:28:39.117Z,9.680694
2023-02-09T01:29:39.116Z,9.680694
2023-02-09T01:30:39.215Z,9.680694
2023-02-09T01:31:39.242Z,9.680694
2023-02-09T01:32:39.088Z,9.680694
2023-02-09T01:33:39.070Z,9.680694
2023-02-09T01:34:39.054Z,9.680694
2023-02-09T01:35:39.054Z,9.680694
2023-02-09T01:36:39.065Z,9.680694
2023-02-09T01:37:39.041Z,9.680694
2023-02-09T01:38:39.048Z,9.680694
2023-02-09T01:39:39.025Z,9.680694
2023-02-09T01:40:39.020Z,9.680694
2023-02-09T01:41:39.013Z,9.680694
2023-02-09T01:42:39.017Z,9.680694
2023-02-09T01:43:39.014Z,9.680694
2023-02-09T01:44:39.021Z,9.680694
2023-02-09T01:45:38.992Z,9.680694
2023-02-09T01:46:39.039Z,9.680694
2023-02-09T01:47:38.996Z,9.680694
2023-02-09T01:48:38.977Z,9.680694
2023-02-09T01:49:39.010Z,9.680694
2023-02-09T01:50:38.968Z,9.680694
2023-02-09T01:51:38.963Z,9.680694
2023-02-09T01:52:38.944Z,9.680694
2023-02-09T01:53:38.942Z,9.680694
2023-02-09T01:54:38.995Z,9.680694
2023-02-09T01:55:38.938Z,9.680694
2023-02-09T01:56:38.923Z,9.680694
2023-02-09T01:57:38.926Z,9.680694
2023-02-09T01:58:38.911Z,9.680694
2023-02-09T01:59:38.907Z,9.680694
2023-02-09T02:00:38.923Z,9.680694
2023-02-09T02:01:38.928Z,9.680694
2023-02-09T02:02:38.955Z,9.680694
2023-02-09T02:03:38.885Z,9.680694
2023-02-09T02:04:38.876Z,9.680694
2023-02-09T02:05:38.879Z,9.680694
2023-02-09T02:06:38.860Z,9.680694
2023-02-09T02:07:38.875Z,9.680694
2023-02-09T02:08:38.869Z,9.680694
2023-02-09T02:09:38.841Z,9.680694
2023-02-09T02:10:38.832Z,9.680694
2023-02-09T02:11:38.842Z,9.680694
2023-02-09T02:12:38.813Z,9.680694
2023-02-09T02:13:38.817Z,9.680694
2023-02-09T02:14:38.823Z,9.680694
2023-02-09T02:15:38.849Z,9.680694
2023-02-09T02:16:38.796Z,9.680694
2023-02-09T02:17:38.785Z,9.680694
2023-02-09T02:18:38.779Z,9.680694
2023-02-09T02:19:38.777Z,9.680694
2023-02-09T02:20:38.782Z,9.680694
2023-02-09T02:21:38.760Z,9.680694
2023-02-09T02:22:38.757Z,9.680694
2023-02-09T02:23:38.754Z,9.680694
2023-02-09T02:24:38.739Z,9.680694
2023-02-09T02:25:38.753Z,9.680694
2023-02-09T02:26:38.732Z,9.680694
2023-02-09T02:27:38.720Z,9.680694
2023-02-09T02:28:38.735Z,9.680694
2023-02-09T02:29:38.716Z,9.680694
2023-02-09T02:30:38.793Z,9.680694
2023-02-09T02:31:38.717Z,9.680694
2023-02-09T02:32:38.693Z,9.680694
2023-02-09T02:33:38.703Z,9.680694
2023-02-09T02:34:38.677Z,9.680694
2023-02-09T02:35:38.690Z,9.680694
2023-02-09T02:36:38.666Z,9.680694
2023-02-09T02:37:38.658Z,9.680694
2023-02-09T02:38:38.665Z,9.680694
2023-02-09T02:39:38.644Z,9.680694
2023-02-09T02:40:38.635Z,9.680694
2023-02-09T02:41:38.625Z,9.680694
2023-02-09T02:42:38.625Z,9.680694
2023-02-09T02:43:38.615Z,9.680694
2023-02-09T02:44:38.626Z,9.680694
2023-02-09T02:45:38.615Z,9.680694
2023-02-09T02:46:38.625Z,9.680694
2023-02-09T02:47:38.590Z,9.680694
2023-02-09T02:48:38.620Z,9.680694
2023-02-09T02:49:38.591Z,9.680694
2023-02-09T02:50:38.626Z,9.680694
2023-02-09T02:51:38.577Z,9.680694
2023-02-09T02:52:38.571Z,9.680694
2023-02-09T02:53:38.559Z,9.680694
2023-02-09T02:54:38.586Z,9.680694
2023-02-09T02:55:38.565Z,9.680694
2023-02-09T02:56:38.542Z,9.680694
2023-02-09T02:57:38.536Z,9.680694
2023-02-09T02:58:38.528Z,9.680694
2023-02-09T02:59:38.525Z,9.680694
2023-02-09T03:00:38.534Z,9.680694
2023-02-09T03:01:38.568Z,9.680694
2023-02-09T03:02:38.500Z,9.680694
2023-02-09T03:03:38.514Z,9.680694
2023-02-09T03:04:38.491Z,9.680694
2023-02-09T03:05:38.566Z,9.680694
2023-02-09T03:06:38.479Z,9.680694
2023-02-09T03:07:38.492Z,9.680694
2023-02-09T03:08:38.468Z,9.680694
2023-02-09T03:09:38.459Z,9.680694
2023-02-09T03:10:38.476Z,9.680694
2023-02-09T03:11:38.447Z,9.680694
2023-02-09T03:12:38.442Z,9.680694
2023-02-09T03:13:38.444Z,9.680694
2023-02-09T03:14:38.433Z,9.680694
2023-02-09T04:07:57.747Z,9.680546
2023-02-09T04:08:57.781Z,9.680238
2023-02-09T04:12:04.774Z,9.680537
2023-02-09T04:13:04.765Z,9.680673
2023-02-09T04:14:04.781Z,9.680699
2023-02-09T04:15:04.815Z,9.680469
2023-02-09T04:16:04.758Z,9.680478
2023-02-09T04:17:04.757Z,9.680478
2023-02-09T04:18:04.753Z,9.680478
2023-02-09T04:19:04.729Z,9.681105
2023-02-09T04:20:04.721Z,9.680332
2023-02-09T04:21:04.717Z,9.680332
2023-02-09T04:22:04.705Z,9.680332
2023-02-09T04:23:04.721Z,9.680332
2023-02-09T04:24:04.708Z,9.680332
2023-02-09T04:25:04.703Z,9.680332
2023-02-09T04:26:04.672Z,9.680332
2023-02-09T04:27:04.670Z,9.680332
2023-02-09T04:28:04.725Z,9.680332
2023-02-09T04:29:04.676Z,9.680332
2023-02-09T04:30:04.664Z,9.680332
2023-02-09T04:31:04.710Z,9.680332
2023-02-09T04:32:04.741Z,9.680332
2023-02-09T04:33:04.628Z,9.680332
2023-02-09T04:34:04.658Z,9.680332
2023-02-09T04:35:04.619Z,9.680332
2023-02-09T04:36:04.615Z,9.680332
2023-02-09T04:37:04.605Z,9.680332
2023-02-09T04:38:04.713Z,9.680332
2023-02-09T04:39:04.589Z,9.680332
2023-02-09T04:40:06.786Z,9.680332
2023-02-09T04:41:04.584Z,9.680332
2023-02-09T04:42:04.573Z,9.680332
2023-02-09T04:43:04.564Z,9.680332
2023-02-09T04:44:04.556Z,9.680332
2023-02-09T04:45:04.556Z,9.680332
2023-02-09T04:46:04.632Z,9.680332
2023-02-09T04:47:04.556Z,9.680332
2023-02-09T04:48:04.538Z,9.680332
2023-02-09T04:49:04.549Z,9.680332
2023-02-09T04:50:04.546Z,9.680332
2023-02-09T04:51:04.518Z,9.680332
2023-02-09T04:52:04.505Z,9.680881
2023-02-09T04:53:04.524Z,9.681017
2023-02-09T04:54:04.495Z,9.681692
2023-02-09T04:55:04.501Z,9.681692
2023-02-09T04:56:04.491Z,9.680969
2023-02-09T04:57:04.506Z,9.681285
2023-02-09T04:58:04.475Z,9.681661
2023-02-09T04:59:04.476Z,9.681661
2023-02-09T05:00:04.469Z,9.681331
2023-02-09T05:01:04.542Z,9.680978
2023-02-09T05:02:04.450Z,9.680971
2023-02-09T05:03:04.551Z,9.681026
2023-02-09T05:04:04.436Z,9.680997
2023-02-09T05:05:04.468Z,9.680554
2023-02-09T05:06:04.430Z,9.680655
2023-02-09T05:07:04.421Z,9.680796
2023-02-09T05:08:04.414Z,9.681028
2023-02-09T05:09:04.422Z,9.681363
2023-02-09T05:10:04.422Z,9.681691
2023-02-09T05:11:04.390Z,9.681287
2023-02-09T05:12:04.390Z,9.681116
2023-02-09T05:13:04.386Z,9.681191
2023-02-09T05:14:04.378Z,9.680357
2023-02-09T05:15:04.389Z,9.681351
2023-02-09T05:16:04.366Z,9.681735
2023-02-09T05:17:04.374Z,9.681712
2023-02-09T05:18:04.373Z,9.681405
2023-02-09T05:19:04.348Z,9.681553
2023-02-09T05:20:04.347Z,9.681087
2023-02-09T05:21:04.357Z,9.681034
2023-02-09T05:22:04.328Z,9.681141
2023-02-09T05:23:04.361Z,9.681081
2023-02-09T05:24:04.318Z,9.680543
2023-02-09T05:25:04.316Z,9.681067
2023-02-09T05:26:04.304Z,9.681422
2023-02-09T05:27:04.309Z,9.680949
2023-02-09T05:28:04.354Z,9.680575
2023-02-09T05:29:04.289Z,9.680586
2023-02-09T05:30:04.284Z,9.681223
2023-02-09T05:31:04.390Z,9.681067
2023-02-09T05:32:04.325Z,9.681396
2023-02-09T05:33:04.277Z,9.681327
2023-02-09T05:34:04.286Z,9.681005
2023-02-09T05:35:04.260Z,9.681051
2023-02-09T05:36:04.271Z,9.681233
2023-02-09T05:37:04.245Z,9.681161
2023-02-09T05:38:04.253Z,9.681149
2023-02-09T05:39:04.267Z,9.680745
2023-02-09T05:40:05.161Z,9.680810
2023-02-09T05:41:04.223Z,9.681354
2023-02-09T05:42:04.215Z,9.681037
2023-02-09T05:43:04.202Z,9.681120
2023-02-09T05:44:04.213Z,9.681238
2023-02-09T05:45:04.220Z,9.681183
2023-02-09T05:46:07.045Z,9.681022
2023-02-09T05:47:04.185Z,9.681165
2023-02-09T05:48:04.190Z,9.681039
2023-02-09T05:49:04.183Z,9.681200
2023-02-09T05:50:04.155Z,9.680860
2023-02-09T05:51:04.148Z,9.680995
2023-02-09T05:52:04.150Z,9.681194
2023-02-09T05:53:04.144Z,9.681175
2023-02-09T05:54:04.169Z,9.681267
2023-02-09T05:55:04.123Z,9.681058
2023-02-09T05:56:04.121Z,9.681153
2023-02-09T05:57:04.118Z,9.681293
2023-02-09T05:58:04.119Z,9.681165
2023-02-09T05:59:04.766Z,9.681121
2023-02-09T06:00:04.136Z,9.681200
2023-02-09T06:01:04.103Z,9.681095
2023-02-09T06:02:04.117Z,9.681104
2023-02-09T06:03:04.205Z,9.681552
2023-02-09T06:04:04.067Z,9.681040
2023-02-09T06:05:04.099Z,9.681293
2023-02-09T06:06:04.054Z,9.681434
2023-02-09T06:07:04.055Z,9.681153
2023-02-09T06:08:04.049Z,9.680952
2023-02-09T06:09:04.054Z,9.681316
2023-02-09T06:10:04.079Z,9.680750
2023-02-09T06:11:04.025Z,9.681271
2023-02-09T06:12:04.051Z,9.680929
2023-02-09T06:13:04.020Z,9.680949
2023-02-09T06:14:04.019Z,9.681157
2023-02-09T06:15:04.021Z,9.681169
2023-02-09T06:16:04.020Z,9.681311
2023-02-09T06:17:03.990Z,9.681240
2023-02-09T06:18:03.984Z,9.681350
2023-02-09T06:19:03.972Z,9.681263
2023-02-09T06:20:03.998Z,9.681174
2023-02-09T06:21:03.967Z,9.681080
2023-02-09T06:22:03.985Z,9.681237
2023-02-09T06:23:03.950Z,9.681454
2023-02-09T06:24:03.941Z,9.681389
2023-02-09T06:25:03.939Z,9.681066
2023-02-09T06:26:03.942Z,9.681012
2023-02-09T06:27:03.951Z,9.681253
2023-02-09T06:28:03.970Z,9.680886
2023-02-09T06:29:03.913Z,9.680686
2023-02-09T06:30:03.921Z,9.680980
2023-02-09T06:31:03.984Z,9.680719
2023-02-09T06:32:04.034Z,9.680180
2023-02-09T06:33:03.935Z,9.680158
2023-02-09T06:34:03.880Z,9.680272
2023-02-09T06:35:03.877Z,9.680715
2023-02-09T06:36:03.872Z,9.680838
2023-02-09T06:37:03.867Z,9.680901
2023-02-09T06:38:03.872Z,9.680568
2023-02-09T06:39:03.859Z,9.680313
2023-02-09T06:40:03.842Z,9.679760
2023-02-09T06:41:03.842Z,9.680076
2023-02-09T06:42:03.839Z,9.680582
2023-02-09T06:43:03.848Z,9.680605
2023-02-09T06:44:03.820Z,9.680735
2023-02-09T06:45:03.813Z,9.680700
2023-02-09T06:46:03.845Z,9.680689
2023-02-09T06:47:03.818Z,9.680655
2023-02-09T06:48:03.798Z,9.680655
2023-02-09T06:49:03.805Z,9.680655
2023-02-09T06:50:03.788Z,9.680655
2023-02-09T06:51:03.786Z,9.680655
2023-02-09T06:52:03.800Z,9.680655
2023-02-09T06:53:03.770Z,9.680316
2023-02-09T06:54:03.754Z,9.680316
2023-02-09T06:55:03.769Z,9.680316
2023-02-09T06:56:03.746Z,9.680316
2023-02-09T06:57:03.748Z,9.680316
2023-02-09T06:58:03.761Z,9.680316
2023-02-09T06:59:03.731Z,9.680316
2023-02-09T07:00:03.728Z,9.680316
2023-02-09T07:01:03.718Z,9.680316
2023-02-09T07:02:03.764Z,9.680316
2023-02-09T07:03:03.792Z,9.680316
2023-02-09T07:04:03.712Z,9.680316
2023-02-09T07:05:03.708Z,9.680316
2023-02-09T07:06:03.683Z,9.680316
2023-02-09T07:07:03.684Z,9.680316
2023-02-09T07:08:03.688Z,9.680316
2023-02-09T07:09:03.660Z,9.680316
2023-02-09T07:10:03.669Z,9.680316
2023-02-09T07:11:03.663Z,9.680316
2023-02-09T07:12:03.654Z,9.680316
2023-02-09T07:13:03.660Z,9.680316
2023-02-09T07:14:03.641Z,9.680316
2023-02-09T07:15:03.647Z,9.680316
2023-02-09T07:16:03.693Z,9.680316
2023-02-09T07:17:03.631Z,9.680316
2023-02-09T07:18:03.663Z,9.680316
2023-02-09T07:19:03.655Z,9.680316
2023-02-09T07:20:03.643Z,9.680316
2023-02-09T07:21:03.582Z,9.680316
2023-02-09T07:22:03.643Z,9.680316
2023-02-09T07:23:03.576Z,9.680316
2023-02-09T07:24:03.643Z,9.680316
2023-02-09T07:25:03.563Z,9.680316
2023-02-09T07:26:03.557Z,9.680316
2023-02-09T07:27:03.550Z,9.680316
2023-02-09T07:28:03.592Z,9.680316
2023-02-09T07:29:03.536Z,9.680316
2023-02-09T07:30:03.547Z,9.680316
2023-02-09T07:31:03.631Z,9.680316
2023-02-09T07:32:03.520Z,9.680316
2023-02-09T07:33:03.513Z,9.680316
2023-02-09T07:34:03.512Z,9.680316
2023-02-09T07:35:03.511Z,9.680316
2023-02-09T07:36:03.517Z,9.680316
2023-02-09T07:37:03.522Z,9.680316
2023-02-09T07:38:03.479Z,9.680316
2023-02-09T07:39:03.471Z,9.680316
2023-02-09T07:40:03.464Z,9.680316
2023-02-09T07:41:03.477Z,9.680316
2023-02-09T07:42:03.470Z,9.680316
2023-02-09T07:43:03.440Z,9.680316
2023-02-09T07:44:03.434Z,9.680316
2023-02-09T07:45:03.436Z,9.680316
2023-02-09T07:46:03.442Z,9.680316
2023-02-09T07:47:03.418Z,9.680316
2023-02-09T07:48:03.432Z,9.680316
2023-02-09T07:49:03.411Z,9.680316
2023-02-09T07:50:03.403Z,9.680316
2023-02-09T07:51:03.419Z,9.680316
2023-02-09T07:52:03.392Z,9.680316
2023-02-09T07:53:03.395Z,9.680316
2023-02-09T07:54:03.382Z,9.680316
2023-02-09T07:55:03.411Z,9.680316
2023-02-09T07:56:03.382Z,9.680316
2023-02-09T07:57:03.383Z,9.680316
2023-02-09T07:58:03.370Z,9.680316
2023-02-09T07:59:03.352Z,9.680316
2023-02-09T08:00:03.340Z,9.680316
2023-02-09T08:01:03.360Z,9.680316
2023-02-09T08:02:03.371Z,9.680316
2023-02-09T08:03:03.343Z,9.680316
2023-02-09T08:04:03.340Z,9.680316
2023-02-09T08:05:03.384Z,9.680316
2023-02-09T08:06:03.325Z,9.680316
2023-02-09T08:07:03.304Z,9.680316
2023-02-09T08:08:03.308Z,9.680316
2023-02-09T08:09:03.305Z,9.680316
2023-02-09T08:10:03.290Z,9.680316
2023-02-09T08:11:03.322Z,9.680316
2023-02-09T08:12:03.383Z,9.680316
2023-02-09T08:13:03.279Z,9.680316
2023-02-09T08:14:03.271Z,9.680316
2023-02-09T08:15:03.276Z,9.680316
2023-02-09T08:16:03.302Z,9.680316
2023-02-09T08:17:03.257Z,9.680316
2023-02-09T08:18:03.250Z,9.680316
2023-02-09T08:19:03.242Z,9.680316
2023-02-09T08:20:03.232Z,9.680316
2023-02-09T08:21:03.224Z,9.680316
2023-02-09T08:22:03.254Z,9.680316
2023-02-09T08:23:03.221Z,9.680316
2023-02-09T08:24:03.211Z,9.680316
2023-02-09T08:25:03.227Z,9.680316
2023-02-09T08:26:03.199Z,9.680316
2023-02-09T08:27:03.195Z,9.680316
2023-02-09T08:28:03.289Z,9.680316
2023-02-09T08:29:03.192Z,9.680316
2023-02-09T08:30:03.171Z,9.680316
2023-02-09T08:31:03.322Z,9.680316
2023-02-09T08:32:03.264Z,9.680316
2023-02-09T08:33:03.160Z,9.680316
2023-02-09T08:34:03.149Z,9.680316
2023-02-09T08:35:03.149Z,9.680316
2023-02-09T08:36:03.173Z,9.680316
2023-02-09T08:37:03.149Z,9.680316
2023-02-09T08:38:03.133Z,9.680316
2023-02-09T08:39:03.158Z,9.680316
2023-02-09T08:40:03.130Z,9.680316
2023-02-09T08:41:03.151Z,9.680316
2023-02-09T08:42:03.145Z,9.680316
2023-02-09T08:43:03.105Z,9.680316
2023-02-09T08:44:03.084Z,9.680316
2023-02-09T08:45:03.118Z,9.680316
2023-02-09T08:46:03.200Z,9.680316
2023-02-09T08:47:03.221Z,9.680316
2023-02-09T08:48:03.060Z,9.680316
2023-02-09T08:49:03.049Z,9.680316
2023-02-09T08:50:03.064Z,9.680316
2023-02-09T08:51:03.073Z,9.680316
2023-02-09T08:52:03.047Z,9.680316
2023-02-09T08:53:03.051Z,9.680316
2023-02-09T08:54:03.018Z,9.680316
2023-02-09T08:55:03.015Z,9.681030
2023-02-09T08:56:03.010Z,9.681278
2023-02-09T08:57:03.000Z,9.681432
2023-02-09T08:58:03.046Z,9.681451
2023-02-09T08:59:03.014Z,9.681434
2023-02-09T09:00:02.984Z,9.681541
2023-02-09T09:01:03.148Z,9.681181
2023-02-09T09:02:02.970Z,9.681497
2023-02-09T09:03:02.965Z,9.682071
2023-02-09T09:04:03.021Z,9.682096
2023-02-09T09:05:02.970Z,9.681401
2023-02-09T09:06:02.947Z,9.681107
2023-02-09T09:07:02.942Z,9.681202
2023-02-09T09:08:02.941Z,9.681606
2023-02-09T09:09:02.941Z,9.681252
2023-02-09T09:10:02.915Z,9.681300
2023-02-09T09:11:02.934Z,9.681331
2023-02-09T09:12:02.900Z,9.681204
2023-02-09T09:13:02.897Z,9.681224
2023-02-09T09:14:02.893Z,9.681162
2023-02-09T09:15:02.903Z,9.681365
2023-02-09T09:16:05.087Z,9.681342
2023-02-09T09:17:02.905Z,9.681252
2023-02-09T09:18:02.864Z,9.681218
2023-02-09T09:19:02.858Z,9.681314
2023-02-09T09:20:02.839Z,9.681260
2023-02-09T09:21:02.839Z,9.681571
2023-02-09T09:22:02.831Z,9.681140
2023-02-09T09:23:02.873Z,9.681255
2023-02-09T09:24:02.836Z,9.681345
2023-02-09T09:25:02.813Z,9.680974
2023-02-09T09:26:02.807Z,9.681007
2023-02-09T09:27:02.806Z,9.681280
2023-02-09T09:28:02.817Z,9.681396
2023-02-09T09:29:02.813Z,9.681417
2023-02-09T09:30:02.776Z,9.681365
2023-02-09T09:31:02.790Z,9.681360
2023-02-09T09:32:02.861Z,9.681548
2023-02-09T09:33:02.871Z,9.681515
2023-02-09T09:34:02.747Z,9.681201
2023-02-09T09:35:02.742Z,9.681166
2023-02-09T09:36:02.733Z,9.681283
2023-02-09T09:37:02.724Z,9.681033
2023-02-09T09:38:02.725Z,9.681143
2023-02-09T09:39:02.728Z,9.681191
2023-02-09T09:40:02.699Z,9.680779
2023-02-09T09:41:02.710Z,9.681297
2023-02-09T09:42:02.699Z,9.681219
2023-02-09T09:43:02.687Z,9.681148
2023-02-09T09:44:02.679Z,9.681247
2023-02-09T09:45:02.688Z,9.681066
2023-02-09T09:46:02.711Z,9.681236
2023-02-09T09:47:02.654Z,9.681287
2023-02-09T09:48:02.651Z,9.681079
2023-02-09T09:49:02.667Z,9.681108
2023-02-09T09:50:02.638Z,9.680952
2023-02-09T09:51:02.625Z,9.681231
2023-02-09T09:52:02.615Z,9.681245
2023-02-09T09:53:02.612Z,9.681244
2023-02-09T09:54:02.622Z,9.681470
2023-02-09T09:55:02.597Z,9.681346
2023-02-09T09:56:02.592Z,9.681143
2023-02-09T09:57:02.583Z,9.681356
2023-02-09T09:58:02.571Z,9.680999
2023-02-09T09:59:02.571Z,9.681387
2023-02-09T10:00:02.593Z,9.681269
2023-02-09T10:01:02.597Z,9.681199
2023-02-09T10:02:02.538Z,9.681029
2023-02-09T10:03:02.537Z,9.680831
2023-02-09T10:04:02.552Z,9.681013
2023-02-09T10:05:02.543Z,9.681085
2023-02-09T10:06:02.509Z,9.680901
2023-02-09T10:07:02.512Z,9.680900
2023-02-09T10:08:02.534Z,9.681279
2023-02-09T10:09:02.506Z,9.681285
2023-02-09T10:10:02.526Z,9.681166
2023-02-09T10:11:05.292Z,9.681217
2023-02-09T10:12:02.509Z,9.681252
2023-02-09T10:13:02.481Z,9.681033
2023-02-09T10:14:02.466Z,9.680981
2023-02-09T10:15:02.468Z,9.681162
2023-02-09T10:16:02.466Z,9.680925
2023-02-09T10:17:02.504Z,9.680958
2023-02-09T10:18:02.444Z,9.681051
2023-02-09T10:19:02.461Z,9.681288
2023-02-09T10:20:02.469Z,9.681157
2023-02-09T10:21:02.421Z,9.680999
2023-02-09T10:22:02.437Z,9.680947
2023-02-09T10:23:02.403Z,9.681075
2023-02-09T10:24:02.410Z,9.680921
2023-02-09T10:25:02.425Z,9.681133
2023-02-09T10:26:02.391Z,9.681043
2023-02-09T10:27:02.383Z,9.681077
2023-02-09T10:28:02.421Z,9.681171
2023-02-09T10:29:02.378Z,9.681078
2023-02-09T10:30:02.365Z,9.681154
2023-02-09T10:31:02.479Z,9.681029
2023-02-09T10:32:02.421Z,9.681168
2023-02-09T10:33:02.374Z,9.681400
2023-02-09T10:34:02.319Z,9.681359
2023-02-09T10:35:02.357Z,9.681180
2023-02-09T10:36:02.322Z,9.681078
2023-02-09T10:37:02.299Z,9.681064
2023-02-09T10:38:02.303Z,9.681086
2023-02-09T10:39:02.286Z,9.681027
2023-02-09T10:40:02.307Z,9.680745
2023-02-09T10:41:02.303Z,9.681065
2023-02-09T10:42:02.318Z,9.680779
2023-02-09T10:43:02.294Z,9.680893
2023-02-09T10:44:02.260Z,9.680795
2023-02-09T10:45:02.253Z,9.680884
2023-02-09T10:46:02.270Z,9.680978
2023-02-09T10:47:02.226Z,9.680943
2023-02-09T10:48:02.245Z,9.680706
2023-02-09T10:49:02.220Z,9.680830
2023-02-09T10:50:02.208Z,9.680765
2023-02-09T10:51:02.211Z,9.680872
2023-02-09T10:52:02.195Z,9.681067
2023-02-09T10:53:02.212Z,9.680779
2023-02-09T10:54:02.187Z,9.680763
2023-02-09T10:55:02.180Z,9.680896
2023-02-09T10:56:02.170Z,9.680973
2023-02-09T10:57:02.333Z,9.680671
2023-02-09T10:58:02.168Z,9.680802
2023-02-09T10:59:02.172Z,9.680779
2023-02-09T11:00:02.173Z,9.680798
2023-02-09T11:01:02.200Z,9.680810
2023-02-09T11:02:02.123Z,9.680728
2023-02-09T11:03:02.143Z,9.680581
2023-02-09T11:04:02.171Z,9.680763
2023-02-09T11:05:02.137Z,9.680738
2023-02-09T11:06:02.111Z,9.680947
2023-02-09T11:07:02.137Z,9.680901
2023-02-09T11:08:02.122Z,9.680892
2023-02-09T11:09:02.108Z,9.680821
2023-02-09T11:10:02.112Z,9.680827
2023-02-09T11:11:02.086Z,9.680816
2023-02-09T11:12:02.106Z,9.680981
2023-02-09T11:13:02.125Z,9.681035
2023-02-09T11:14:02.057Z,9.680842
2023-02-09T11:15:02.073Z,9.680902
2023-02-09T11:16:02.135Z,9.680792
2023-02-09T11:17:02.071Z,9.680965
2023-02-09T11:18:02.026Z,9.680969
2023-02-09T11:19:02.065Z,9.681057
2023-02-09T11:20:02.029Z,9.680877
2023-02-09T11:21:02.112Z,9.680971
2023-02-09T11:22:02.052Z,9.680606
2023-02-09T11:23:02.009Z,9.680320
2023-02-09T11:24:01.992Z,9.680937
2023-02-09T11:25:01.993Z,9.681035
2023-02-09T11:26:02.002Z,9.681139
2023-02-09T11:27:01.976Z,9.681113
2023-02-09T11:28:02.025Z,9.680938
2023-02-09T11:29:01.957Z,9.681162
2023-02-09T11:30:02.181Z,9.681165
2023-02-09T11:31:02.060Z,9.680814
2023-02-09T11:32:02.074Z,9.680694
2023-02-09T11:33:01.944Z,9.680900
2023-02-09T11:34:01.964Z,9.681028
2023-02-09T11:35:01.951Z,9.681329
2023-02-09T11:36:01.916Z,9.681256
2023-02-09T11:37:01.942Z,9.681334
2023-02-09T11:38:01.936Z,9.681141
2023-02-09T11:39:01.923Z,9.681292
2023-02-09T11:40:01.907Z,9.681309
2023-02-09T11:41:01.907Z,9.681011
2023-02-09T11:42:01.901Z,9.680709
2023-02-09T11:43:01.905Z,9.681049
2023-02-09T11:44:01.870Z,9.681125
2023-02-09T11:45:01.892Z,9.681164
2023-02-09T11:46:01.885Z,9.680904
2023-02-09T11:47:01.858Z,9.681207
2023-02-09T11:48:01.890Z,9.681145
2023-02-09T11:49:01.875Z,9.681054
2023-02-09T11:50:01.881Z,9.681197
2023-02-09T11:51:01.844Z,9.681288
2023-02-09T11:52:01.831Z,9.681134
2023-02-09T11:53:01.853Z,9.680995
2023-02-09T11:54:01.819Z,9.681006
2023-02-09T11:55:01.815Z,9.681261
2023-02-09T11:56:01.823Z,9.681076
2023-02-09T11:57:01.852Z,9.680737
2023-02-09T11:58:01.799Z,9.680813
2023-02-09T11:59:01.821Z,9.680905
2023-02-09T12:00:01.793Z,9.681082
2023-02-09T12:01:14.361Z,9.681189
2023-02-09T12:02:02.794Z,9.680967
2023-02-09T12:03:01.851Z,9.681128
2023-02-09T12:04:01.788Z,9.680962
2023-02-09T12:05:01.759Z,9.680930
2023-02-09T12:06:01.763Z,9.680892
2023-02-09T12:07:01.761Z,9.680848
2023-02-09T12:08:01.750Z,9.680919
2023-02-09T12:09:01.736Z,9.680965
2023-02-09T12:10:01.730Z,9.680929
2023-02-09T12:11:01.724Z,9.680777
2023-02-09T12:12:01.715Z,9.680745
2023-02-09T12:13:01.733Z,9.680694
2023-02-09T12:14:01.697Z,9.680761
2023-02-09T12:15:01.734Z,9.680882
2023-02-09T12:16:01.734Z,9.680966
2023-02-09T12:17:01.693Z,9.681200
2023-02-09T12:18:01.684Z,9.681517
2023-02-09T12:19:01.675Z,9.681176
2023-02-09T12:20:01.715Z,9.681064
2023-02-09T12:21:01.670Z,9.681026
2023-02-09T12:22:01.654Z,9.681071
2023-02-09T12:23:01.660Z,9.681081
2023-02-09T12:24:01.677Z,9.681151
2023-02-09T12:25:01.662Z,9.680471
2023-02-09T12:26:01.667Z,9.679953
2023-02-09T12:27:01.623Z,9.681097
2023-02-09T12:28:01.628Z,9.681308
2023-02-09T12:29:01.606Z,9.681340
2023-02-09T12:30:01.610Z,9.681158
2023-02-09T12:31:01.745Z,9.681272
2023-02-09T12:32:01.758Z,9.681434
2023-02-09T12:33:01.581Z,9.681435
2023-02-09T12:34:01.582Z,9.681246
2023-02-09T12:35:01.591Z,9.681282
2023-02-09T12:36:01.564Z,9.681472
2023-02-09T12:37:01.557Z,9.681222
2023-02-09T12:38:01.584Z,9.680914
2023-02-09T12:39:05.571Z,9.681225